createdAt,value
2022-12-19T00:01:09.627Z,4.90
2022-12-19T00:02:11.756Z,4.75
2022-12-19T00:03:14.545Z,4.63
2022-12-19T00:04:19.923Z,4.90
2022-12-19T00:05:22.415Z,4.60
2022-12-19T00:06:28.100Z,4.30
2022-12-19T00:07:30.124Z,3.95
2022-12-19T00:08:32.166Z,4.25
2022-12-19T00:09:34.427Z,4.00
2022-12-19T00:10:37.745Z,4.47
2022-12-19T00:11:40.309Z,4.30
2022-12-19T00:12:43.201Z,4.30
2022-12-19T00:13:45.773Z,4.87
2022-12-19T00:14:48.344Z,4.07
2022-12-19T00:15:53.029Z,4.15
2022-12-19T00:16:55.087Z,4.30
2022-12-19T00:17:57.773Z,4.85
2022-12-19T00:19:01.391Z,4.50
2022-12-19T00:20:03.575Z,4.63
2022-12-19T00:21:06.195Z,4.82
2022-12-19T00:22:11.140Z,5.30
2022-12-19T00:23:13.571Z,5.03
2022-12-19T00:24:21.299Z,5.00
2022-12-19T00:25:24.570Z,4.70
2022-12-19T00:26:31.959Z,4.43
2022-12-19T00:27:37.276Z,4.85
2022-12-19T00:28:43.494Z,4.70
2022-12-19T00:29:48.220Z,4.70
2022-12-19T00:30:51.872Z,4.90
2022-12-19T00:31:59.025Z,4.88
2022-12-19T00:33:01.125Z,4.90
2022-12-19T00:34:04.370Z,4.97
2022-12-19T00:35:07.397Z,5.27
2022-12-19T00:36:23.199Z,5.13
2022-12-19T00:37:25.938Z,5.35
2022-12-19T00:38:28.947Z,5.72
2022-12-19T00:39:33.097Z,5.28
2022-12-19T00:40:35.153Z,9.07
2022-12-19T00:41:41.887Z,21.60
2022-12-19T00:42:46.463Z,7.15
2022-12-19T00:43:55.704Z,8.82
2022-12-19T00:44:58.989Z,5.72
2022-12-19T00:46:06.073Z,4.80
2022-12-19T00:47:08.918Z,10.03
2022-12-19T00:48:12.880Z,12.38
2022-12-19T00:49:17.710Z,10.52
2022-12-19T00:50:22.004Z,9.27
2022-12-19T00:51:29.681Z,5.53
2022-12-19T00:52:31.720Z,7.82
2022-12-19T00:53:35.657Z,7.55
2022-12-19T00:54:38.356Z,6.50
2022-12-19T00:55:40.973Z,6.70
2022-12-19T00:56:43.634Z,6.90
2022-12-19T00:57:45.632Z,6.33
2022-12-19T00:58:47.856Z,6.75
2022-12-19T00:59:49.943Z,7.85
2022-12-19T01:00:53.365Z,6.93
2022-12-19T01:01:55.495Z,6.93
2022-12-19T01:03:00.337Z,6.15
2022-12-19T01:04:28.517Z,6.03
2022-12-19T01:05:31.431Z,5.20
2022-12-19T01:06:33.496Z,5.35
2022-12-19T01:07:36.742Z,5.37
2022-12-19T01:08:38.871Z,5.07
2022-12-19T01:09:40.987Z,4.82
2022-12-19T01:10:49.114Z,4.65
2022-12-19T01:12:09.668Z,4.90
2022-12-19T01:13:11.674Z,5.00
2022-12-19T01:14:22.385Z,4.80
2022-12-19T01:15:24.974Z,4.78
2022-12-19T01:16:27.014Z,4.65
2022-12-19T01:17:29.085Z,4.90
2022-12-19T01:18:31.256Z,4.20
2022-12-19T01:19:41.918Z,4.05
2022-12-19T01:20:49.136Z,4.55
2022-12-19T01:21:51.091Z,3.90
2022-12-19T01:22:53.822Z,4.03
2022-12-19T01:23:55.943Z,4.70
2022-12-19T01:24:58.330Z,3.80
2022-12-19T01:26:00.376Z,4.10
2022-12-19T01:27:03.188Z,4.00
2022-12-19T01:28:06.542Z,4.70
2022-12-19T01:29:08.559Z,4.30
2022-12-19T01:30:11.358Z,4.33
2022-12-19T01:31:14.453Z,4.32
2022-12-19T01:32:17.839Z,4.20
2022-12-19T01:33:21.180Z,4.10
2022-12-19T01:34:23.194Z,4.15
2022-12-19T01:35:25.298Z,4.00
2022-12-19T01:36:28.094Z,4.10
2022-12-19T01:37:30.121Z,4.72
2022-12-19T01:38:37.396Z,4.80
2022-12-19T01:39:39.396Z,4.30
2022-12-19T01:40:56.008Z,4.30
2022-12-19T01:41:58.329Z,4.38
2022-12-19T01:43:02.445Z,4.57
2022-12-19T01:44:07.065Z,4.68
2022-12-19T01:45:11.219Z,4.30
2022-12-19T01:46:15.962Z,4.50
2022-12-19T01:47:19.898Z,4.38
2022-12-19T01:48:40.111Z,4.68
2022-12-19T01:49:42.156Z,4.50
2022-12-19T01:51:01.325Z,4.10
2022-12-19T01:52:10.980Z,4.10
2022-12-19T01:53:30.581Z,4.68
2022-12-19T01:54:35.951Z,4.90
2022-12-19T01:55:41.048Z,4.63
2022-12-19T01:56:47.024Z,4.80
2022-12-19T01:57:49.229Z,4.63
2022-12-19T01:58:56.143Z,4.10
2022-12-19T02:00:12.727Z,4.38
2022-12-19T02:01:17.591Z,4.53
2022-12-19T02:02:26.757Z,4.60
2022-12-19T02:03:31.929Z,5.20
2022-12-19T02:04:35.095Z,4.38
2022-12-19T02:05:38.078Z,4.10
2022-12-19T02:06:43.840Z,4.38
2022-12-19T02:07:46.778Z,4.30
2022-12-19T02:08:49.569Z,4.10
2022-12-19T02:09:56.820Z,4.18
2022-12-19T02:11:00.664Z,4.32
2022-12-19T02:12:04.303Z,4.32
2022-12-19T02:13:08.227Z,4.53
2022-12-19T02:14:11.570Z,4.40
2022-12-19T02:15:16.846Z,4.05
2022-12-19T02:16:34.080Z,4.07
2022-12-19T02:17:57.490Z,4.32
2022-12-19T02:19:27.943Z,4.38
2022-12-19T02:20:58.671Z,4.35
2022-12-19T02:22:14.897Z,4.07
2022-12-19T02:23:49.810Z,4.07
2022-12-19T02:25:33.580Z,3.95
2022-12-19T02:26:50.684Z,4.47
2022-12-19T02:28:06.425Z,4.43
2022-12-19T02:29:46.679Z,5.20
2022-12-19T02:31:15.478Z,4.65
2022-12-19T02:32:50.345Z,5.20
2022-12-19T02:34:01.638Z,4.82
2022-12-19T02:35:19.681Z,4.90
2022-12-19T02:36:34.885Z,4.75
2022-12-19T02:37:48.631Z,4.88
2022-12-19T02:39:09.881Z,4.70
2022-12-19T02:40:19.074Z,5.37
2022-12-19T02:41:43.526Z,5.32
2022-12-19T02:42:59.301Z,4.93
2022-12-19T02:44:02.879Z,5.32
2022-12-19T02:45:09.071Z,5.35
2022-12-19T02:46:12.637Z,5.22
2022-12-19T02:47:16.928Z,4.82
2022-12-19T02:48:20.310Z,4.97
2022-12-19T02:49:30.525Z,4.90
2022-12-19T02:50:42.383Z,5.18
2022-12-19T02:51:45.979Z,4.90
2022-12-19T02:52:49.628Z,5.30
2022-12-19T02:53:52.000Z,5.18
2022-12-19T02:54:59.395Z,5.30
2022-12-19T02:56:42.618Z,5.72
2022-12-19T02:58:05.304Z,5.00
2022-12-19T02:59:08.122Z,4.80
2022-12-19T03:00:19.153Z,5.13
2022-12-19T03:01:45.757Z,5.50
2022-12-19T03:02:57.939Z,5.30
2022-12-19T03:04:38.243Z,5.50
2022-12-19T03:05:48.990Z,5.82
2022-12-19T03:07:13.054Z,5.55
2022-12-19T03:08:32.759Z,5.20
2022-12-19T03:09:45.449Z,5.55
2022-12-19T03:10:56.490Z,5.50
2022-12-19T03:12:15.656Z,5.57
2022-12-19T03:13:34.615Z,5.22
2022-12-19T03:14:37.837Z,5.10
2022-12-19T03:15:41.390Z,5.40
2022-12-19T03:16:44.040Z,5.37
2022-12-19T03:17:47.154Z,5.32
2022-12-19T03:18:49.759Z,5.00
2022-12-19T03:19:51.810Z,5.05
2022-12-19T03:21:14.969Z,5.00
2022-12-19T03:22:17.698Z,4.95
2022-12-19T03:23:20.196Z,4.80
2022-12-19T03:24:22.255Z,5.03
2022-12-19T03:25:25.610Z,4.38
2022-12-19T03:26:36.582Z,5.10
2022-12-19T03:27:39.835Z,4.80
2022-12-19T03:29:16.016Z,4.97
2022-12-19T03:30:18.216Z,4.70
2022-12-19T03:31:23.509Z,5.00
2022-12-19T03:32:27.589Z,5.07
2022-12-19T03:33:32.200Z,5.05
2022-12-19T03:35:01.749Z,4.88
2022-12-19T03:36:07.982Z,4.85
2022-12-19T03:37:15.948Z,5.25
2022-12-19T03:38:20.499Z,4.97
2022-12-19T03:39:25.173Z,5.47
2022-12-19T03:40:28.348Z,9.45
2022-12-19T03:41:50.278Z,4.72
2022-12-19T03:43:12.666Z,4.90
2022-12-19T03:44:18.143Z,4.68
2022-12-19T03:45:57.380Z,4.63
2022-12-19T03:47:10.022Z,4.38
2022-12-19T03:48:24.391Z,4.60
2022-12-19T03:49:26.658Z,4.40
2022-12-19T03:50:33.756Z,4.68
2022-12-19T03:51:45.824Z,4.90
2022-12-19T03:53:18.806Z,4.20
2022-12-19T03:54:36.915Z,4.20
2022-12-19T03:55:48.387Z,6.72
2022-12-19T03:57:00.617Z,5.07
2022-12-19T03:58:19.423Z,4.90
2022-12-19T03:59:33.471Z,4.50
2022-12-19T04:00:38.357Z,4.40
2022-12-19T04:01:41.497Z,4.50
2022-12-19T04:02:48.339Z,4.90
2022-12-19T04:03:51.762Z,4.63
2022-12-19T04:05:08.967Z,4.60
2022-12-19T04:06:13.616Z,4.60
2022-12-19T04:07:17.340Z,4.57
2022-12-19T04:08:20.273Z,4.20
2022-12-19T04:09:23.894Z,4.80
2022-12-19T04:10:27.913Z,5.05
2022-12-19T04:11:38.772Z,4.43
2022-12-19T04:12:50.703Z,4.75
2022-12-19T04:14:00.552Z,5.10
2022-12-19T04:15:03.637Z,4.73
2022-12-19T04:16:32.639Z,4.63
2022-12-19T04:17:44.145Z,5.25
2022-12-19T04:18:53.174Z,5.20
2022-12-19T04:20:07.781Z,5.68
2022-12-19T04:21:19.180Z,5.38
2022-12-19T04:22:30.073Z,4.88
2022-12-19T04:23:37.462Z,4.70
2022-12-19T04:24:42.602Z,5.03
2022-12-19T04:25:51.732Z,5.25
2022-12-19T04:26:56.712Z,6.13
2022-12-19T04:28:10.126Z,5.10
2022-12-19T04:29:14.261Z,5.43
2022-12-19T04:30:18.732Z,5.05
2022-12-19T04:31:21.792Z,5.63
2022-12-19T04:32:25.230Z,5.28
2022-12-19T04:33:27.264Z,4.28
2022-12-19T04:34:29.950Z,4.75
2022-12-19T04:35:32.815Z,4.97
2022-12-19T04:36:35.056Z,4.90
2022-12-19T04:37:37.226Z,4.77
2022-12-19T04:38:39.360Z,4.88
2022-12-19T04:39:41.428Z,4.70
2022-12-19T04:40:43.656Z,5.10
2022-12-19T04:41:45.685Z,4.63
2022-12-19T04:42:47.757Z,4.60
2022-12-19T04:43:49.995Z,4.60
2022-12-19T04:44:52.055Z,5.10
2022-12-19T04:45:57.348Z,4.15
2022-12-19T04:47:00.379Z,4.65
2022-12-19T04:48:02.412Z,4.40
2022-12-19T04:49:04.541Z,4.60
2022-12-19T04:50:07.875Z,4.40
2022-12-19T04:51:09.978Z,4.70
2022-12-19T04:52:12.036Z,4.43
2022-12-19T04:53:14.860Z,4.50
2022-12-19T04:54:18.284Z,4.72
2022-12-19T04:55:25.176Z,4.45
2022-12-19T04:56:29.295Z,4.32
2022-12-19T04:57:31.973Z,4.93
2022-12-19T04:58:35.837Z,4.30
2022-12-19T04:59:37.856Z,4.22
2022-12-19T05:00:39.906Z,4.43
2022-12-19T05:01:42.009Z,4.63
2022-12-19T05:02:44.611Z,4.22
2022-12-19T05:03:51.270Z,4.50
2022-12-19T05:04:56.359Z,4.60
2022-12-19T05:06:09.175Z,4.47
2022-12-19T05:07:11.145Z,4.53
2022-12-19T05:08:13.132Z,4.38
2022-12-19T05:09:15.491Z,4.10
2022-12-19T05:10:18.232Z,4.70
2022-12-19T05:11:20.296Z,4.13
2022-12-19T05:12:22.310Z,4.63
2022-12-19T05:13:24.327Z,4.05
2022-12-19T05:14:26.303Z,4.43
2022-12-19T05:15:28.314Z,4.38
2022-12-19T05:16:30.558Z,4.32
2022-12-19T05:17:32.625Z,4.20
2022-12-19T05:18:35.831Z,4.47
2022-12-19T05:19:37.840Z,4.50
2022-12-19T05:20:39.938Z,4.53
2022-12-19T05:21:43.074Z,4.22
2022-12-19T05:22:45.104Z,4.70
2022-12-19T05:23:47.230Z,4.28
2022-12-19T05:24:49.341Z,3.75
2022-12-19T05:25:52.059Z,4.00
2022-12-19T05:26:54.194Z,4.00
2022-12-19T05:27:56.260Z,3.35
2022-12-19T05:28:58.683Z,3.95
2022-12-19T05:30:01.469Z,3.87
2022-12-19T05:31:12.989Z,4.20
2022-12-19T05:32:15.030Z,4.20
2022-12-19T05:33:17.101Z,4.38
2022-12-19T05:34:19.111Z,4.20
2022-12-19T05:35:21.132Z,4.05
2022-12-19T05:36:29.072Z,4.25
2022-12-19T05:37:34.768Z,4.30
2022-12-19T05:38:37.186Z,4.18
2022-12-19T05:39:43.871Z,4.43
2022-12-19T05:40:45.953Z,4.20
2022-12-19T05:41:49.294Z,4.13
2022-12-19T05:42:51.442Z,4.00
2022-12-19T05:43:55.697Z,4.20
2022-12-19T05:44:58.021Z,4.20
2022-12-19T05:46:00.254Z,4.25
2022-12-19T05:47:02.324Z,4.30
2022-12-19T05:48:04.553Z,4.80
2022-12-19T05:49:06.579Z,4.93
2022-12-19T05:50:09.043Z,5.03
2022-12-19T05:51:11.267Z,4.63
2022-12-19T05:52:13.285Z,4.88
2022-12-19T05:53:16.204Z,4.25
2022-12-19T05:54:18.328Z,4.97
2022-12-19T05:55:20.349Z,4.95
2022-12-19T05:56:23.656Z,5.00
2022-12-19T05:57:25.742Z,5.05
2022-12-19T05:58:27.775Z,5.22
2022-12-19T05:59:30.514Z,4.95
2022-12-19T06:00:32.521Z,4.82
2022-12-19T06:01:34.661Z,4.57
2022-12-19T06:02:37.160Z,4.10
2022-12-19T06:03:39.772Z,4.90
2022-12-19T06:04:41.806Z,4.78
2022-12-19T06:05:44.518Z,4.55
2022-12-19T06:06:46.490Z,4.82
2022-12-19T06:07:48.484Z,4.18
2022-12-19T06:08:55.339Z,4.15
2022-12-19T06:09:57.444Z,4.03
2022-12-19T06:11:04.320Z,3.90
2022-12-19T06:12:07.655Z,3.97
2022-12-19T06:13:09.744Z,4.50
2022-12-19T06:14:11.822Z,3.95
2022-12-19T06:15:13.873Z,4.13
2022-12-19T06:16:17.982Z,4.38
2022-12-19T06:17:20.573Z,4.05
2022-12-19T06:18:22.635Z,4.50
2022-12-19T06:19:24.808Z,4.40
2022-12-19T06:20:27.223Z,4.82
2022-12-19T06:21:29.292Z,4.50
2022-12-19T06:22:31.342Z,4.03
2022-12-19T06:23:36.306Z,4.68
2022-12-19T06:24:38.396Z,4.55
2022-12-19T06:25:40.865Z,4.65
2022-12-19T06:26:43.240Z,4.40
2022-12-19T06:27:45.272Z,4.47
2022-12-19T06:28:53.342Z,5.28
2022-12-19T06:29:55.372Z,5.30
2022-12-19T06:30:58.922Z,4.43
2022-12-19T06:32:01.816Z,4.25
2022-12-19T06:33:03.997Z,4.40
2022-12-19T06:34:06.737Z,4.55
2022-12-19T06:35:09.023Z,4.50
2022-12-19T06:36:21.723Z,4.20
2022-12-19T06:37:23.755Z,3.78
2022-12-19T06:38:26.333Z,4.30
2022-12-19T06:39:28.375Z,4.50
2022-12-19T06:40:49.175Z,4.50
2022-12-19T06:42:09.988Z,4.05
2022-12-19T06:43:15.121Z,3.80
2022-12-19T06:44:18.609Z,4.30
2022-12-19T06:45:20.724Z,4.43
2022-12-19T06:46:22.759Z,4.00
2022-12-19T06:47:25.524Z,5.15
2022-12-19T06:48:32.128Z,4.82
2022-12-19T06:49:34.225Z,4.65
2022-12-19T06:50:36.488Z,4.40
2022-12-19T06:51:38.716Z,4.32
2022-12-19T06:52:40.740Z,4.40
2022-12-19T06:53:43.392Z,4.50
2022-12-19T06:54:45.759Z,4.00
2022-12-19T06:55:49.476Z,4.47
2022-12-19T06:56:51.459Z,4.55
2022-12-19T06:57:55.918Z,3.70
2022-12-19T06:58:57.919Z,4.10
2022-12-19T06:59:59.934Z,3.95
2022-12-19T07:01:02.053Z,4.00
2022-12-19T07:02:10.877Z,3.85
2022-12-19T07:03:17.160Z,4.25
2022-12-19T07:04:37.709Z,3.60
2022-12-19T07:05:40.667Z,4.20
2022-12-19T07:06:48.751Z,3.83
2022-12-19T07:07:51.314Z,3.83
2022-12-19T07:08:53.592Z,3.90
2022-12-19T07:09:55.745Z,4.10
2022-12-19T07:10:59.063Z,4.25
2022-12-19T07:12:02.059Z,4.55
2022-12-19T07:13:04.630Z,4.85
2022-12-19T07:14:06.652Z,4.30
2022-12-19T07:15:12.293Z,5.00
2022-12-19T07:16:14.639Z,4.50
2022-12-19T07:17:18.166Z,4.05
2022-12-19T07:18:20.311Z,4.07
2022-12-19T07:19:22.995Z,4.95
2022-12-19T07:20:25.454Z,4.20
2022-12-19T07:21:28.082Z,4.40
2022-12-19T07:22:33.239Z,4.15
2022-12-19T07:23:35.970Z,4.20
2022-12-19T07:24:38.360Z,4.13
2022-12-19T07:25:40.450Z,3.90
2022-12-19T07:26:44.207Z,4.73
2022-12-19T07:27:48.867Z,3.75
2022-12-19T07:28:50.937Z,3.90
2022-12-19T07:29:53.011Z,4.13
2022-12-19T07:30:55.076Z,4.15
2022-12-19T07:31:57.170Z,4.10
2022-12-19T07:32:59.395Z,4.20
2022-12-19T07:34:01.496Z,4.05
2022-12-19T07:35:04.142Z,4.60
2022-12-19T07:36:06.317Z,4.43
2022-12-19T07:37:08.413Z,4.93
2022-12-19T07:38:10.805Z,5.07
2022-12-19T07:39:12.891Z,4.50
2022-12-19T07:40:15.189Z,4.55
2022-12-19T07:41:17.691Z,4.70
2022-12-19T07:42:19.691Z,4.22
2022-12-19T07:43:21.725Z,4.40
2022-12-19T07:44:23.807Z,4.50
2022-12-19T07:45:26.248Z,4.20
2022-12-19T07:46:30.220Z,4.60
2022-12-19T07:47:35.044Z,4.80
2022-12-19T07:48:37.087Z,4.72
2022-12-19T07:49:39.376Z,5.38
2022-12-19T07:50:41.817Z,6.20
2022-12-19T07:51:44.013Z,5.75
2022-12-19T07:52:46.029Z,5.38
2022-12-19T07:53:48.797Z,5.55
2022-12-19T07:54:50.840Z,5.95
2022-12-19T07:55:52.951Z,5.50
2022-12-19T07:56:55.054Z,5.00
2022-12-19T07:57:57.067Z,5.23
2022-12-19T07:58:59.151Z,4.90
2022-12-19T08:00:01.225Z,4.85
2022-12-19T08:01:03.299Z,5.28
2022-12-19T08:02:05.511Z,4.35
2022-12-19T08:03:08.811Z,4.82
2022-12-19T08:04:10.894Z,5.22
2022-12-19T08:05:15.849Z,4.30
2022-12-19T08:06:18.025Z,4.40
2022-12-19T08:07:20.046Z,4.70
2022-12-19T08:08:22.061Z,4.65
2022-12-19T08:09:27.694Z,4.63
2022-12-19T08:10:31.018Z,4.82
2022-12-19T08:11:33.118Z,4.80
2022-12-19T08:12:35.237Z,4.53
2022-12-19T08:13:41.013Z,5.00
2022-12-19T08:14:46.790Z,4.97
2022-12-19T08:15:49.129Z,4.45
2022-12-19T08:17:19.284Z,5.35
2022-12-19T08:18:13.252Z,4.40
2022-12-19T08:19:15.324Z,4.25
2022-12-19T08:20:17.399Z,4.93
2022-12-19T08:21:19.712Z,4.75
2022-12-19T08:22:22.915Z,4.32
2022-12-19T08:23:25.484Z,4.80
2022-12-19T08:24:27.551Z,4.32
2022-12-19T08:25:29.731Z,4.93
2022-12-19T08:26:38.284Z,4.78
2022-12-19T08:27:43.100Z,4.40
2022-12-19T08:28:45.179Z,4.60
2022-12-19T08:29:47.610Z,5.40
2022-12-19T08:30:49.688Z,5.33
2022-12-19T08:31:51.725Z,5.05
2022-12-19T08:32:53.736Z,4.95
2022-12-19T08:33:57.735Z,5.07
2022-12-19T08:34:59.760Z,5.07
2022-12-19T08:36:09.993Z,4.60
2022-12-19T08:37:12.049Z,4.65
2022-12-19T08:38:14.175Z,4.97
2022-12-19T08:39:16.263Z,5.20
2022-12-19T08:40:18.322Z,5.80
2022-12-19T08:41:20.960Z,4.70
2022-12-19T08:42:23.871Z,4.90
2022-12-19T08:43:29.190Z,4.50
2022-12-19T08:44:31.308Z,5.10
2022-12-19T08:45:33.295Z,5.10
2022-12-19T08:46:35.438Z,4.97
2022-12-19T08:47:37.528Z,5.43
2022-12-19T08:48:39.735Z,5.47
2022-12-19T08:49:41.805Z,5.18
2022-12-19T08:50:54.787Z,5.00
2022-12-19T08:51:56.852Z,4.93
2022-12-19T08:52:58.883Z,5.50
2022-12-19T08:54:00.966Z,4.78
2022-12-19T08:55:04.848Z,5.00
2022-12-19T08:56:10.762Z,5.07
2022-12-19T08:57:12.942Z,5.95
2022-12-19T08:58:15.046Z,4.95
2022-12-19T08:59:25.992Z,5.38
2022-12-19T09:00:33.969Z,5.10
2022-12-19T09:01:36.049Z,4.28
2022-12-19T09:02:38.384Z,5.17
2022-12-19T09:04:06.950Z,4.93
2022-12-19T09:05:58.839Z,4.88
2022-12-19T09:06:25.838Z,5.20
2022-12-19T09:07:31.020Z,4.70
2022-12-19T09:08:34.084Z,4.93
2022-12-19T09:09:36.104Z,5.13
2022-12-19T09:10:39.022Z,5.15
2022-12-19T09:11:41.026Z,4.60
2022-12-19T09:12:54.478Z,5.00
2022-12-19T09:13:59.702Z,4.80
2022-12-19T09:15:01.748Z,5.10
2022-12-19T09:16:07.777Z,4.60
2022-12-19T09:17:10.105Z,4.95
2022-12-19T09:18:12.122Z,4.93
2022-12-19T09:19:16.419Z,5.10
2022-12-19T09:20:23.201Z,5.00
2022-12-19T09:21:29.290Z,5.13
2022-12-19T09:22:31.480Z,5.22
2022-12-19T09:23:34.591Z,5.00
2022-12-19T09:24:36.600Z,5.53
2022-12-19T09:25:38.690Z,5.15
2022-12-19T09:26:42.223Z,5.10
2022-12-19T09:28:17.904Z,5.55
2022-12-19T09:29:19.783Z,5.28
2022-12-19T09:30:22.323Z,5.35
2022-12-19T09:31:25.585Z,8.20
2022-12-19T09:32:27.661Z,4.45
2022-12-19T09:33:31.580Z,4.70
2022-12-19T09:34:38.391Z,4.40
2022-12-19T09:35:53.057Z,5.47
2022-12-19T09:36:57.520Z,5.63
2022-12-19T09:38:00.574Z,5.20
2022-12-19T09:39:02.793Z,5.25
2022-12-19T09:40:05.248Z,5.00
2022-12-19T09:41:31.692Z,4.70
2022-12-19T09:42:58.072Z,4.60
2022-12-19T09:44:34.063Z,4.50
2022-12-19T09:46:11.769Z,5.93
2022-12-19T09:47:18.410Z,7.43
2022-12-19T09:48:24.514Z,9.53
2022-12-19T09:49:59.070Z,9.00
2022-12-19T09:51:11.156Z,8.82
2022-12-19T09:52:26.002Z,8.93
2022-12-19T09:54:19.603Z,8.85
2022-12-19T09:55:41.676Z,8.25
2022-12-19T09:56:46.735Z,8.27
2022-12-19T09:58:01.790Z,8.10
2022-12-19T09:59:39.900Z,7.95
2022-12-19T10:00:47.376Z,8.13
2022-12-19T10:01:59.826Z,8.33
2022-12-19T10:03:12.743Z,8.18
2022-12-19T10:04:18.493Z,8.20
2022-12-19T10:06:01.158Z,8.02
2022-12-19T10:07:48.381Z,7.90
2022-12-19T10:08:57.956Z,7.40
2022-12-19T10:12:36.097Z,6.55
2022-12-19T10:12:41.454Z,6.32
2022-12-19T10:13:48.958Z,5.57
2022-12-19T10:15:03.357Z,5.20
2022-12-19T10:16:16.856Z,5.30
2022-12-19T10:17:26.054Z,5.80
2022-12-19T10:18:57.448Z,5.50
2022-12-19T10:20:29.648Z,4.65
2022-12-19T10:23:55.561Z,4.82
2022-12-19T10:25:09.142Z,5.35
2022-12-19T10:26:30.543Z,4.80
2022-12-19T10:27:58.742Z,4.70
2022-12-19T10:29:15.629Z,5.55
2022-12-19T10:30:20.968Z,4.63
2022-12-19T10:31:41.600Z,4.50
2022-12-19T10:32:56.866Z,4.40
2022-12-19T10:34:17.823Z,4.85
2022-12-19T10:35:20.453Z,5.00
2022-12-19T10:36:41.998Z,4.57
2022-12-19T10:38:08.401Z,5.10
2022-12-19T10:39:43.612Z,5.85
2022-12-19T10:41:08.622Z,5.20
2022-12-19T10:42:40.322Z,5.30
2022-12-19T10:44:14.460Z,4.40
2022-12-19T10:45:21.810Z,4.70
2022-12-19T10:46:47.549Z,5.30
2022-12-19T10:47:56.937Z,5.00
2022-12-19T10:48:59.028Z,5.35
2022-12-19T10:50:07.328Z,5.10
2022-12-19T10:51:26.762Z,4.63
2022-12-19T10:52:56.922Z,5.38
2022-12-19T10:54:01.405Z,5.85
2022-12-19T10:55:20.481Z,5.00
2022-12-19T10:56:28.265Z,4.87
2022-12-19T10:57:35.347Z,5.00
2022-12-19T10:58:42.057Z,5.28
2022-12-19T11:00:04.739Z,5.05
2022-12-19T11:01:34.628Z,5.18
2022-12-19T11:02:39.629Z,4.88
2022-12-19T11:03:49.957Z,5.00
2022-12-19T11:04:53.078Z,5.60
2022-12-19T11:05:58.194Z,5.20
2022-12-19T11:07:03.896Z,4.90
2022-12-19T11:08:08.685Z,5.17
2022-12-19T11:09:18.485Z,4.90
2022-12-19T11:12:29.743Z,4.95
2022-12-19T11:14:43.189Z,5.00
2022-12-19T11:17:50.238Z,4.72
2022-12-19T11:20:30.717Z,5.30
2022-12-19T11:21:18.889Z,5.28
2022-12-19T11:27:07.986Z,5.30
2022-12-19T11:29:19.253Z,5.30
2022-12-19T11:29:33.380Z,5.43
2022-12-19T11:29:34.803Z,5.70
2022-12-19T11:29:40.284Z,5.90
2022-12-19T11:29:44.577Z,5.40
2022-12-19T11:30:06.585Z,5.53
2022-12-19T11:30:47.264Z,5.30
2022-12-19T11:32:46.849Z,5.60
2022-12-19T11:33:55.243Z,5.63
2022-12-19T11:35:05.624Z,5.10
2022-12-19T11:36:26.536Z,5.50
2022-12-19T11:37:43.186Z,5.82
2022-12-19T11:38:53.519Z,5.22
2022-12-19T11:40:03.611Z,5.20
2022-12-19T11:41:14.497Z,5.88
2022-12-19T11:42:25.967Z,5.35
2022-12-19T11:43:55.144Z,5.55
2022-12-19T11:45:17.896Z,5.82
2022-12-19T11:46:39.367Z,5.15
2022-12-19T11:47:52.999Z,5.20
2022-12-19T11:49:27.018Z,5.40
2022-12-19T11:50:35.197Z,5.10
2022-12-19T11:51:49.611Z,5.70
2022-12-19T11:53:18.591Z,5.07
2022-12-19T11:54:33.007Z,5.35
2022-12-19T11:55:51.518Z,5.80
2022-12-19T11:56:53.685Z,5.45
2022-12-19T11:57:55.740Z,5.95
2022-12-19T11:59:02.111Z,5.53
2022-12-19T12:00:05.668Z,6.53
2022-12-19T12:01:30.016Z,6.00
2022-12-19T12:02:59.530Z,5.10
2022-12-19T12:04:11.054Z,5.38
2022-12-19T12:05:38.325Z,5.53
2022-12-19T12:06:52.962Z,5.63
2022-12-19T12:09:32.040Z,5.72
2022-12-19T12:13:52.005Z,5.95
2022-12-19T12:15:05.249Z,5.70
2022-12-19T12:22:21.862Z,5.57
2022-12-19T12:24:42.948Z,5.00
2022-12-19T12:30:59.355Z,5.23
2022-12-19T12:31:09.928Z,4.78
2022-12-19T12:31:16.554Z,5.30
2022-12-19T12:31:16.639Z,5.07
2022-12-19T12:31:27.901Z,5.00
2022-12-19T12:31:46.586Z,4.97
2022-12-19T12:31:48.338Z,5.03
2022-12-19T12:31:54.115Z,5.07
2022-12-19T12:32:02.753Z,4.93
2022-12-19T12:35:51.346Z,5.47
2022-12-19T12:37:52.434Z,5.30
2022-12-19T12:38:27.047Z,4.90
2022-12-19T12:40:01.588Z,5.07
2022-12-19T12:41:03.818Z,4.97
2022-12-19T12:42:24.049Z,5.30
2022-12-19T12:43:46.623Z,5.03
2022-12-19T12:44:50.749Z,5.00
2022-12-19T12:45:52.765Z,5.10
2022-12-19T12:47:04.218Z,5.37
2022-12-19T12:48:41.180Z,4.68
2022-12-19T12:49:47.209Z,4.45
2022-12-19T12:50:54.960Z,4.60
2022-12-19T12:51:59.519Z,4.35
2022-12-19T12:53:06.408Z,4.40
2022-12-19T12:54:14.284Z,4.90
2022-12-19T12:55:29.998Z,4.30
2022-12-19T12:56:32.642Z,4.30
2022-12-19T12:57:37.259Z,4.03
2022-12-19T12:58:53.922Z,4.43
2022-12-19T13:00:33.523Z,3.63
2022-12-19T13:01:40.586Z,4.80
2022-12-19T13:02:46.985Z,4.60
2022-12-19T13:04:12.199Z,4.10
2022-12-19T13:05:23.110Z,4.22
2022-12-19T13:06:34.133Z,4.40
2022-12-19T13:07:50.785Z,4.65
2022-12-19T13:09:02.648Z,4.60
2022-12-19T13:10:19.312Z,4.85
2022-12-19T13:11:40.017Z,5.23
2022-12-19T13:12:59.982Z,4.72
2022-12-19T13:14:02.237Z,5.28
2022-12-19T13:15:32.691Z,4.82
2022-12-19T13:16:43.808Z,5.00
2022-12-19T13:17:48.935Z,5.05
2022-12-19T13:19:19.720Z,5.72
2022-12-19T13:20:27.787Z,6.07
2022-12-19T13:22:07.642Z,6.00
2022-12-19T13:23:33.841Z,5.95
2022-12-19T13:24:47.782Z,5.77
2022-12-19T13:25:54.582Z,5.57
2022-12-19T13:26:57.702Z,5.70
2022-12-19T13:28:20.708Z,5.80
2022-12-19T13:29:34.491Z,5.60
2022-12-19T13:31:21.153Z,5.57
2022-12-19T13:32:24.345Z,5.80
2022-12-19T13:34:04.777Z,5.80
2022-12-19T13:39:31.605Z,5.63
2022-12-19T13:39:47.803Z,5.17
2022-12-19T13:39:51.037Z,5.60
2022-12-19T13:40:09.205Z,4.90
2022-12-19T13:41:48.379Z,5.10
2022-12-19T13:43:18.984Z,4.68
2022-12-19T13:44:23.843Z,4.90
2022-12-19T13:45:32.653Z,4.75
2022-12-19T13:46:43.004Z,4.97
2022-12-19T13:47:46.517Z,5.13
2022-12-19T13:48:52.525Z,5.13
2022-12-19T13:49:55.663Z,5.18
2022-12-19T13:51:03.591Z,5.40
2022-12-19T13:52:06.909Z,5.40
2022-12-19T13:53:19.985Z,5.60
2022-12-19T13:54:23.594Z,5.63
2022-12-19T13:55:29.372Z,5.55
2022-12-19T13:56:32.035Z,5.40
2022-12-19T13:57:41.146Z,5.18
2022-12-19T13:58:47.985Z,5.03
2022-12-19T13:59:59.577Z,5.63
2022-12-19T14:01:20.137Z,5.00
2022-12-19T14:02:34.866Z,4.80
2022-12-19T14:03:47.591Z,4.88
2022-12-19T14:04:49.808Z,5.03
2022-12-19T14:06:16.348Z,4.57
2022-12-19T14:07:38.428Z,4.30
2022-12-19T14:08:40.569Z,4.07
2022-12-19T14:11:35.401Z,4.13
2022-12-19T14:11:44.765Z,4.30
2022-12-19T14:13:58.131Z,4.20
2022-12-19T14:14:36.999Z,4.60
2022-12-19T14:15:41.998Z,4.30
2022-12-19T14:16:46.000Z,4.00
2022-12-19T14:17:49.290Z,3.95
2022-12-19T14:18:51.344Z,4.32
2022-12-19T14:20:06.763Z,4.40
2022-12-19T14:22:05.119Z,3.85
2022-12-19T14:22:46.781Z,4.20
2022-12-19T14:23:48.949Z,4.03
2022-12-19T14:26:06.088Z,4.03
2022-12-19T14:28:17.341Z,4.20
2022-12-19T14:28:23.737Z,3.67
2022-12-19T14:30:19.409Z,4.82
2022-12-19T14:31:00.533Z,4.68
2022-12-19T14:33:44.185Z,4.70
2022-12-19T14:33:46.310Z,5.57
2022-12-19T14:36:07.515Z,6.00
2022-12-19T14:36:28.397Z,9.02
2022-12-19T14:39:01.159Z,6.43
2022-12-19T14:39:22.942Z,16.65
2022-12-19T14:40:26.383Z,7.97
2022-12-19T14:41:47.323Z,8.83
2022-12-19T14:43:59.516Z,6.97
2022-12-19T14:52:08.223Z,6.15
2022-12-19T14:54:01.417Z,6.70
2022-12-19T14:54:08.630Z,5.35
2022-12-19T14:54:13.499Z,5.68
2022-12-19T14:54:21.239Z,5.43
2022-12-19T14:54:21.297Z,6.43
2022-12-19T14:55:13.411Z,4.78
2022-12-19T14:56:03.861Z,4.80
2022-12-19T14:57:00.192Z,4.37
2022-12-19T14:58:54.359Z,4.22
2022-12-19T14:59:46.239Z,4.20
2022-12-19T15:01:09.660Z,4.57
2022-12-19T15:02:30.675Z,7.43
2022-12-19T15:03:46.572Z,6.28
2022-12-19T15:05:16.981Z,10.00
2022-12-19T15:07:10.097Z,5.13
2022-12-19T15:07:49.798Z,4.72
2022-12-19T15:10:57.400Z,5.68
2022-12-19T15:11:06.501Z,6.07
2022-12-19T15:14:47.389Z,5.20
2022-12-19T15:14:57.048Z,5.95
2022-12-19T15:15:04.715Z,5.50
2022-12-19T15:16:07.656Z,5.28
2022-12-19T15:17:28.462Z,13.70
2022-12-19T15:18:33.306Z,26.85
2022-12-19T15:19:35.392Z,18.70
2022-12-19T15:20:37.376Z,23.90
2022-12-19T15:21:39.764Z,9.13
2022-12-19T15:22:42.742Z,7.00
2022-12-19T15:23:45.836Z,7.07
2022-12-19T15:24:47.947Z,9.15
2022-12-19T15:26:08.308Z,9.48
2022-12-19T15:27:16.273Z,7.70
2022-12-19T15:28:20.717Z,6.85
2022-12-19T15:29:22.770Z,5.65
2022-12-19T15:30:25.477Z,7.30
2022-12-19T15:31:38.553Z,6.20
2022-12-19T15:32:40.899Z,13.40
2022-12-19T15:34:00.120Z,11.80
2022-12-19T15:35:16.607Z,14.20
2022-12-19T15:36:18.694Z,6.82
2022-12-19T15:37:20.818Z,6.78
2022-12-19T15:38:22.908Z,7.82
2022-12-19T15:39:26.612Z,6.35
2022-12-19T15:40:28.657Z,8.60
2022-12-19T15:41:31.459Z,6.63
2022-12-19T15:42:34.748Z,7.88
2022-12-19T15:44:03.197Z,11.30